createdAt,value
2017-08-10T00:03:16.810Z,0
2017-08-10T00:03:57.217Z,0
2017-08-10T00:04:37.665Z,0
2017-08-10T00:05:18.240Z,0
2017-08-10T00:05:58.706Z,0
2017-08-10T00:06:39.218Z,0
2017-08-10T00:09:32.417Z,0
2017-08-10T00:10:12.128Z,0
2017-08-10T00:10:53.102Z,0
2017-08-10T00:11:33.552Z,0
2017-08-10T00:12:14.131Z,0
2017-08-10T00:12:55.549Z,0
2017-08-10T00:13:35.925Z,0
2017-08-10T00:14:16.361Z,0
2017-08-10T00:14:56.854Z,0
2017-08-10T00:15:37.701Z,0
2017-08-10T00:16:18.502Z,0
2017-08-10T00:16:59.062Z,0
2017-08-10T00:17:40.644Z,0
2017-08-10T00:18:20.226Z,0
2017-08-10T00:19:00.762Z,0
2017-08-10T00:19:41.150Z,0
2017-08-10T00:20:21.675Z,0
2017-08-10T00:21:02.124Z,0
2017-08-10T00:21:42.440Z,0
2017-08-10T00:22:22.962Z,0
2017-08-10T00:23:03.301Z,0
2017-08-10T00:23:44.040Z,0
2017-08-10T00:24:24.410Z,0
2017-08-10T00:25:04.949Z,0
2017-08-10T00:25:45.312Z,0
2017-08-10T00:26:25.834Z,0
2017-08-10T00:27:06.172Z,0
2017-08-10T00:27:46.586Z,0
2017-08-10T00:28:26.946Z,0
2017-08-10T00:29:07.424Z,0
2017-08-10T00:29:47.789Z,0
2017-08-10T00:30:28.163Z,0
2017-08-10T00:31:08.597Z,0
2017-08-10T00:31:49.196Z,0
2017-08-10T00:32:29.811Z,0
2017-08-10T00:33:10.302Z,0
2017-08-10T00:33:50.776Z,0
2017-08-10T00:34:31.206Z,0
2017-08-10T00:35:11.573Z,0
2017-08-10T00:35:51.981Z,0
2017-08-10T00:36:32.554Z,0
2017-08-10T00:37:12.875Z,0
2017-08-10T00:37:53.302Z,0
2017-08-10T00:38:33.702Z,0
2017-08-10T00:39:14.167Z,0
2017-08-10T00:39:55.091Z,0
2017-08-10T00:40:35.472Z,0
2017-08-10T00:41:16.055Z,0
2017-08-10T00:41:56.403Z,0
2017-08-10T00:42:36.975Z,0
2017-08-10T00:43:17.195Z,0
2017-08-10T00:43:57.626Z,0
2017-08-10T00:44:38.098Z,0
2017-08-10T00:45:18.774Z,0
2017-08-10T00:45:59.112Z,0
2017-08-10T00:46:39.567Z,0
2017-08-10T00:47:20.001Z,0
2017-08-10T00:48:00.398Z,0
2017-08-10T00:48:40.789Z,0
2017-08-10T00:49:21.236Z,0
2017-08-10T00:50:01.578Z,0
2017-08-10T00:50:41.987Z,0
2017-08-10T00:51:22.419Z,0
2017-08-10T00:52:02.806Z,0
2017-08-10T00:52:43.339Z,0
2017-08-10T00:53:23.678Z,0
2017-08-10T00:54:04.105Z,0
2017-08-10T00:54:44.536Z,0
2017-08-10T00:55:24.971Z,0
2017-08-10T00:56:05.361Z,0
2017-08-10T00:56:46.121Z,0
2017-08-10T00:57:27.240Z,0
2017-08-10T00:58:07.596Z,0
2017-08-10T00:58:48.158Z,0
2017-08-10T00:59:28.675Z,0
2017-08-10T01:00:09.482Z,0
2017-08-10T01:00:49.907Z,0
2017-08-10T01:01:30.376Z,0
2017-08-10T01:02:10.769Z,0
2017-08-10T01:02:51.175Z,0
2017-08-10T01:03:31.639Z,0
2017-08-10T01:04:13.493Z,0
2017-08-10T01:04:54.552Z,0
2017-08-10T01:05:34.775Z,0
2017-08-10T01:06:15.403Z,0
2017-08-10T01:06:56.107Z,0
2017-08-10T01:07:36.330Z,0
2017-08-10T01:08:19.669Z,0
2017-08-10T01:09:00.133Z,0
2017-08-10T01:09:40.562Z,0
2017-08-10T01:10:21.114Z,0
2017-08-10T01:11:01.403Z,0
2017-08-10T01:11:42.054Z,0
2017-08-10T01:12:22.467Z,0
2017-08-10T01:13:03.122Z,0
2017-08-10T01:13:43.590Z,0
2017-08-10T01:14:24.147Z,0
2017-08-10T01:15:06.013Z,0
2017-08-10T01:15:46.819Z,0
2017-08-10T01:16:28.674Z,0
2017-08-10T01:17:10.097Z,0
2017-08-10T01:17:51.318Z,0
2017-08-10T01:18:32.031Z,0
2017-08-10T01:22:28.737Z,0
2017-08-10T01:23:15.168Z,0
2017-08-10T01:23:55.599Z,0
2017-08-10T01:24:36.130Z,0
2017-08-10T01:25:16.504Z,0
2017-08-10T01:25:56.928Z,0
2017-08-10T01:26:37.317Z,0
2017-08-10T01:27:17.763Z,0
2017-08-10T01:27:58.096Z,0
2017-08-10T01:28:38.534Z,0
2017-08-10T01:29:18.989Z,0
2017-08-10T01:29:59.409Z,0
2017-08-10T01:30:39.776Z,0
2017-08-10T01:31:20.159Z,0
2017-08-10T01:32:00.620Z,0
2017-08-10T01:32:41.007Z,0
2017-08-10T01:33:21.396Z,0
2017-08-10T01:34:01.814Z,0
2017-08-10T01:34:42.257Z,0
2017-08-10T01:35:22.596Z,0
2017-08-10T01:36:03.047Z,0
2017-08-10T01:36:43.383Z,0
2017-08-10T01:37:23.833Z,0
2017-08-10T01:38:04.201Z,0
2017-08-10T01:38:44.642Z,0
2017-08-10T01:39:25.110Z,0
2017-08-10T01:40:05.479Z,0
2017-08-10T01:40:45.834Z,0
2017-08-10T01:41:26.256Z,0
2017-08-10T01:42:06.665Z,0
2017-08-10T01:42:47.051Z,0
2017-08-10T01:43:27.449Z,0
2017-08-10T01:44:07.868Z,0
2017-08-10T01:44:48.263Z,0
2017-08-10T01:45:28.656Z,0
2017-08-10T01:46:09.051Z,0
2017-08-10T01:46:49.448Z,0
2017-08-10T01:47:29.796Z,0
2017-08-10T01:48:10.280Z,0
2017-08-10T01:48:50.632Z,0
2017-08-10T01:49:31.000Z,0
2017-08-10T01:50:11.421Z,0
2017-08-10T01:50:51.874Z,0
2017-08-10T01:51:32.229Z,0
2017-08-10T01:52:12.652Z,0
2017-08-10T01:52:53.037Z,0
2017-08-10T01:53:33.434Z,0
2017-08-10T01:54:13.823Z,0
2017-08-10T01:54:54.254Z,0
2017-08-10T01:55:34.612Z,0
2017-08-10T01:56:15.011Z,0
2017-08-10T01:56:55.424Z,0
2017-08-10T01:57:35.837Z,0
2017-08-10T01:58:16.234Z,0
2017-08-10T01:58:56.595Z,0
2017-08-10T01:59:36.986Z,0
2017-08-10T02:00:17.339Z,0
2017-08-10T02:00:57.782Z,0
2017-08-10T02:01:38.199Z,0
2017-08-10T02:02:18.584Z,0
2017-08-10T02:02:58.984Z,0
2017-08-10T02:03:39.371Z,0
2017-08-10T02:04:19.813Z,0
2017-08-10T02:05:00.193Z,0
2017-08-10T02:05:40.638Z,0
2017-08-10T02:06:21.024Z,0
2017-08-10T02:07:01.405Z,0
2017-08-10T02:07:41.844Z,0
2017-08-10T02:08:22.241Z,0
2017-08-10T02:09:02.608Z,0
2017-08-10T02:09:43.040Z,0
2017-08-10T02:10:23.407Z,0
2017-08-10T02:11:03.850Z,0
2017-08-10T02:11:44.268Z,0
2017-08-10T02:12:24.706Z,0
2017-08-10T02:13:05.097Z,0
2017-08-10T02:13:45.496Z,0
2017-08-10T02:14:25.869Z,0
2017-08-10T02:15:06.300Z,0
2017-08-10T02:15:46.719Z,0
2017-08-10T02:16:27.134Z,0
2017-08-10T02:17:07.510Z,0
2017-08-10T02:17:47.900Z,0
2017-08-10T02:18:28.317Z,0
2017-08-10T02:19:08.719Z,0
2017-08-10T02:19:49.121Z,0
2017-08-10T02:20:29.533Z,0
2017-08-10T02:21:09.887Z,0
2017-08-10T02:21:50.275Z,0
2017-08-10T02:22:30.701Z,0
2017-08-10T02:23:11.111Z,0
2017-08-10T02:23:51.485Z,0
2017-08-10T02:24:31.874Z,0
2017-08-10T02:25:12.270Z,0
2017-08-10T02:25:52.645Z,0
2017-08-10T02:26:33.073Z,0
2017-08-10T02:27:13.460Z,0
2017-08-10T02:27:53.855Z,0
2017-08-10T02:28:34.286Z,0
2017-08-10T02:29:14.685Z,0
2017-08-10T02:29:55.104Z,0
2017-08-10T02:30:35.458Z,0
2017-08-10T02:31:15.809Z,0
2017-08-10T02:31:56.214Z,0
2017-08-10T02:32:36.659Z,0
2017-08-10T02:33:17.068Z,0
2017-08-10T02:33:57.474Z,0
2017-08-10T02:34:38.547Z,0
2017-08-10T02:35:18.948Z,0
2017-08-10T02:35:59.368Z,0
2017-08-10T02:36:39.799Z,0
2017-08-10T02:37:20.247Z,0
2017-08-10T02:38:00.676Z,0
2017-08-10T02:38:41.076Z,0
2017-08-10T02:39:21.524Z,0
2017-08-10T02:40:01.922Z,0
2017-08-10T02:40:42.610Z,0
2017-08-10T02:41:22.751Z,0
2017-08-10T02:42:03.175Z,0
2017-08-10T02:42:43.620Z,0
2017-08-10T02:43:23.974Z,0
2017-08-10T02:44:04.391Z,0
2017-08-10T02:44:44.767Z,0
2017-08-10T02:45:25.214Z,0
2017-08-10T02:46:05.551Z,0
2017-08-10T02:46:45.979Z,0
2017-08-10T02:47:26.375Z,0
2017-08-10T02:48:06.756Z,0
2017-08-10T02:48:47.167Z,0
2017-08-10T02:49:27.594Z,0
2017-08-10T02:50:07.975Z,0
2017-08-10T02:50:48.326Z,0
2017-08-10T02:51:28.742Z,0
2017-08-10T02:52:09.202Z,0
2017-08-10T02:52:49.640Z,0
2017-08-10T02:53:30.002Z,0
2017-08-10T02:54:10.442Z,0
2017-08-10T02:54:50.818Z,0
2017-08-10T02:55:31.223Z,0
2017-08-10T02:56:11.597Z,0
2017-08-10T02:56:52.017Z,0
2017-08-10T02:57:32.458Z,0
2017-08-10T02:58:12.826Z,0
2017-08-10T02:58:53.273Z,0
2017-08-10T02:59:33.679Z,0
2017-08-10T03:00:14.107Z,0
2017-08-10T03:00:54.512Z,0
2017-08-10T03:01:34.903Z,0
2017-08-10T03:02:15.340Z,0
2017-08-10T03:02:55.749Z,0
2017-08-10T03:03:36.179Z,0
2017-08-10T03:04:16.611Z,0
2017-08-10T03:04:56.943Z,0
2017-08-10T03:05:37.363Z,0
2017-08-10T03:06:17.786Z,0
2017-08-10T03:06:58.241Z,0
2017-08-10T03:07:38.602Z,0
2017-08-10T03:08:18.981Z,0
2017-08-10T03:08:59.409Z,0
2017-08-10T03:09:39.831Z,0
2017-08-10T03:10:20.183Z,0
2017-08-10T03:11:00.549Z,0
2017-08-10T03:11:41.007Z,0
2017-08-10T03:12:21.449Z,0
2017-08-10T03:13:01.814Z,0
2017-08-10T03:13:42.194Z,0
2017-08-10T03:14:22.636Z,0
2017-08-10T03:15:03.100Z,0
2017-08-10T03:15:43.451Z,0
2017-08-10T03:16:23.881Z,0
2017-08-10T03:17:04.453Z,0
2017-08-10T03:17:44.874Z,0
2017-08-10T03:18:25.259Z,0
2017-08-10T03:19:05.632Z,0
2017-08-10T03:19:46.059Z,0
2017-08-10T03:20:26.464Z,0
2017-08-10T03:21:06.869Z,0
2017-08-10T03:21:47.282Z,0
2017-08-10T03:22:27.664Z,0
2017-08-10T03:23:08.046Z,0
2017-08-10T03:23:48.430Z,0
2017-08-10T03:24:28.853Z,0
2017-08-10T03:25:09.262Z,0
2017-08-10T03:25:49.677Z,0
2017-08-10T03:26:30.064Z,0
2017-08-10T03:27:10.493Z,0
2017-08-10T03:27:50.904Z,0
2017-08-10T03:28:31.269Z,0
2017-08-10T03:29:11.683Z,0
2017-08-10T03:29:52.085Z,0
2017-08-10T03:30:32.480Z,0
2017-08-10T03:31:12.914Z,0
2017-08-10T03:31:53.312Z,0
2017-08-10T03:32:33.732Z,0
2017-08-10T03:33:14.156Z,0
2017-08-10T03:33:54.523Z,0
2017-08-10T03:34:34.923Z,0
2017-08-10T03:35:15.323Z,0
2017-08-10T03:35:55.691Z,0
2017-08-10T03:36:36.112Z,0
2017-08-10T03:37:16.492Z,0
2017-08-10T03:37:56.907Z,0
2017-08-10T03:38:37.332Z,0
2017-08-10T03:39:17.732Z,0
2017-08-10T03:39:58.254Z,0
2017-08-10T03:40:38.616Z,0
2017-08-10T03:41:19.011Z,0
2017-08-10T03:41:59.468Z,0
2017-08-10T03:42:39.791Z,0
2017-08-10T03:43:20.199Z,0
2017-08-10T03:44:00.619Z,0
2017-08-10T03:44:40.993Z,0
2017-08-10T03:45:21.385Z,0
2017-08-10T03:46:01.771Z,0
2017-08-10T03:46:42.155Z,0
2017-08-10T03:47:22.591Z,0
2017-08-10T03:48:03.010Z,0
2017-08-10T03:48:43.407Z,0
2017-08-10T03:49:23.759Z,0
2017-08-10T03:50:04.205Z,0
2017-08-10T03:50:44.582Z,0
2017-08-10T03:51:24.945Z,0
2017-08-10T03:52:05.312Z,0
2017-08-10T03:52:45.746Z,0
2017-08-10T03:53:26.132Z,0
2017-08-10T03:54:06.536Z,0
2017-08-10T03:54:46.947Z,0
2017-08-10T03:55:27.341Z,0
2017-08-10T03:56:07.772Z,0
2017-08-10T03:56:48.133Z,0
2017-08-10T03:57:28.564Z,0
2017-08-10T03:58:08.979Z,0
2017-08-10T03:58:49.380Z,0
2017-08-10T03:59:29.746Z,0
2017-08-10T04:00:10.161Z,0
2017-08-10T04:00:50.533Z,0
2017-08-10T04:01:30.935Z,0
2017-08-10T04:02:11.336Z,0
2017-08-10T04:02:51.767Z,0
2017-08-10T04:03:32.130Z,0
2017-08-10T04:04:12.590Z,0
2017-08-10T04:04:53.019Z,0
2017-08-10T04:05:33.524Z,0
2017-08-10T04:06:13.897Z,0
2017-08-10T04:06:54.265Z,0
2017-08-10T04:07:34.646Z,0
2017-08-10T04:08:15.042Z,0
2017-08-10T04:08:55.484Z,0
2017-08-10T04:09:35.883Z,0
2017-08-10T04:10:16.284Z,0
2017-08-10T04:10:56.757Z,0
2017-08-10T04:11:37.153Z,0
2017-08-10T04:12:17.641Z,0
2017-08-10T04:12:58.080Z,0
2017-08-10T04:13:38.611Z,0
2017-08-10T04:14:18.992Z,0
2017-08-10T04:14:59.402Z,0
2017-08-10T04:15:39.793Z,0
2017-08-10T04:16:20.203Z,0
2017-08-10T04:17:00.595Z,0
2017-08-10T04:17:41.025Z,0
2017-08-10T04:18:21.454Z,0
2017-08-10T04:19:01.833Z,0
2017-08-10T04:19:42.287Z,0
2017-08-10T04:20:22.720Z,0
2017-08-10T04:21:03.127Z,0
2017-08-10T04:21:43.516Z,0
2017-08-10T04:22:23.951Z,0
2017-08-10T04:23:04.331Z,0
2017-08-10T04:23:44.760Z,0
2017-08-10T04:24:25.163Z,0
2017-08-10T04:25:05.528Z,0
2017-08-10T04:25:45.958Z,0
2017-08-10T04:26:26.339Z,0
2017-08-10T04:27:06.774Z,0
2017-08-10T04:27:47.165Z,0
2017-08-10T04:28:27.561Z,0
2017-08-10T04:29:07.939Z,0
2017-08-10T04:29:48.344Z,0
2017-08-10T04:30:28.821Z,0
2017-08-10T04:31:09.255Z,5
2017-08-10T04:31:49.603Z,5
2017-08-10T04:32:30.027Z,5
2017-08-10T04:33:10.430Z,5
2017-08-10T04:33:50.795Z,5
2017-08-10T04:34:31.181Z,5
2017-08-10T04:35:11.593Z,5
2017-08-10T04:35:52.024Z,5
2017-08-10T04:36:32.386Z,5
2017-08-10T04:37:12.796Z,5
2017-08-10T04:37:53.164Z,5
2017-08-10T04:38:33.680Z,5
2017-08-10T04:39:14.034Z,10
2017-08-10T04:39:54.455Z,10
2017-08-10T04:40:34.848Z,10
2017-08-10T04:41:15.281Z,10
2017-08-10T04:41:55.692Z,10
2017-08-10T04:42:36.088Z,10
2017-08-10T04:43:16.513Z,10
2017-08-10T04:43:56.921Z,10
2017-08-10T04:44:37.295Z,10
2017-08-10T04:45:17.732Z,10
2017-08-10T04:45:58.158Z,10
2017-08-10T04:46:38.541Z,10
2017-08-10T04:47:18.996Z,10
2017-08-10T04:47:59.431Z,10
2017-08-10T04:48:39.840Z,10
2017-08-10T04:49:20.203Z,10
2017-08-10T04:50:00.626Z,10
2017-08-10T04:50:41.025Z,10
2017-08-10T04:51:21.460Z,10
2017-08-10T04:52:01.845Z,10
2017-08-10T04:52:42.319Z,10
2017-08-10T04:53:22.752Z,10
2017-08-10T04:54:03.191Z,10
2017-08-10T04:54:43.559Z,10
2017-08-10T04:55:23.982Z,10
2017-08-10T04:56:04.375Z,15
2017-08-10T04:56:44.851Z,15
2017-08-10T04:57:25.301Z,15
2017-08-10T04:58:05.693Z,15
2017-08-10T04:58:46.091Z,15
2017-08-10T04:59:26.489Z,15
2017-08-10T05:00:06.912Z,20
2017-08-10T05:00:47.285Z,20
2017-08-10T05:01:27.752Z,20
2017-08-10T05:02:08.135Z,25
2017-08-10T05:02:48.532Z,25
2017-08-10T05:03:28.947Z,25
2017-08-10T05:04:09.369Z,25
2017-08-10T05:04:49.772Z,30
2017-08-10T05:05:30.173Z,30
2017-08-10T05:06:10.533Z,30
2017-08-10T05:06:51.099Z,30
2017-08-10T05:07:31.510Z,30
2017-08-10T05:08:11.869Z,30
2017-08-10T05:08:52.303Z,30
2017-08-10T05:09:32.700Z,35
2017-08-10T05:10:13.138Z,35
2017-08-10T05:12:51.447Z,40
2017-08-10T05:13:31.852Z,40
2017-08-10T05:14:12.252Z,45
2017-08-10T05:14:52.674Z,50
2017-08-10T05:15:33.081Z,50
2017-08-10T05:16:13.448Z,55
2017-08-10T05:16:54.173Z,60
2017-08-10T05:17:34.706Z,60
2017-08-10T05:18:15.092Z,65
2017-08-10T05:18:55.441Z,65
2017-08-10T05:19:35.867Z,65
2017-08-10T05:20:16.246Z,70
2017-08-10T05:20:56.670Z,70
2017-08-10T05:21:37.056Z,70
2017-08-10T05:22:17.568Z,70
2017-08-10T05:22:57.940Z,70
2017-08-10T05:23:38.364Z,70
2017-08-10T05:24:18.822Z,70
2017-08-10T05:24:59.272Z,65
2017-08-10T05:25:39.712Z,65
2017-08-10T05:26:20.124Z,65
2017-08-10T05:27:00.547Z,65
2017-08-10T05:27:40.919Z,65
2017-08-10T05:28:21.354Z,65
2017-08-10T05:29:01.775Z,70
2017-08-10T05:29:42.228Z,65
2017-08-10T05:30:22.686Z,65
2017-08-10T05:31:03.127Z,60
2017-08-10T05:31:43.490Z,55
2017-08-10T05:32:23.921Z,55
2017-08-10T05:33:04.302Z,50
2017-08-10T05:33:44.670Z,50
2017-08-10T05:34:25.142Z,50
2017-08-10T05:35:06.508Z,50
2017-08-10T05:35:46.019Z,50
2017-08-10T05:36:26.407Z,50
2017-08-10T05:37:06.819Z,50
2017-08-10T05:37:47.208Z,45
2017-08-10T05:38:27.664Z,45
2017-08-10T05:39:08.084Z,45
2017-08-10T05:39:48.582Z,45
2017-08-10T05:40:29.023Z,40
2017-08-10T05:41:09.845Z,40
2017-08-10T05:41:50.189Z,45
2017-08-10T05:42:30.559Z,45
2017-08-10T05:43:10.989Z,45
2017-08-10T05:43:51.421Z,45
2017-08-10T05:44:31.800Z,45
2017-08-10T05:45:12.213Z,45
2017-08-10T05:45:52.577Z,45
2017-08-10T05:46:32.958Z,45
2017-08-10T05:47:13.375Z,40
2017-08-10T05:47:53.732Z,40
2017-08-10T05:48:34.123Z,45
2017-08-10T05:49:14.570Z,45
2017-08-10T05:49:54.971Z,40
2017-08-10T05:50:35.327Z,40
2017-08-10T05:51:15.769Z,40
2017-08-10T05:51:56.112Z,40
2017-08-10T05:52:36.508Z,40
2017-08-10T05:53:16.993Z,35
2017-08-10T05:53:57.389Z,35
2017-08-10T05:54:37.780Z,40
2017-08-10T05:55:18.186Z,40
2017-08-10T05:55:58.549Z,40
2017-08-10T05:56:38.963Z,40
2017-08-10T05:57:19.429Z,40
2017-08-10T05:57:59.812Z,45
2017-08-10T05:58:40.206Z,45
2017-08-10T05:59:20.602Z,45
2017-08-10T06:00:01.029Z,45
2017-08-10T06:00:41.431Z,50
2017-08-10T06:01:21.893Z,50
2017-08-10T06:02:02.310Z,50
2017-08-10T06:02:42.683Z,50
2017-08-10T06:03:23.074Z,55
2017-08-10T06:04:03.456Z,55
2017-08-10T06:04:59.136Z,60
2017-08-10T06:05:40.473Z,60
2017-08-10T06:06:20.103Z,65
2017-08-10T06:07:00.509Z,65
2017-08-10T06:07:40.916Z,70
2017-08-10T06:08:21.390Z,70
2017-08-10T06:09:01.797Z,75
2017-08-10T06:09:42.217Z,75
2017-08-10T06:10:22.564Z,80
2017-08-10T06:11:02.922Z,80
2017-08-10T06:11:43.362Z,85
2017-08-10T06:12:23.773Z,85
2017-08-10T06:13:04.180Z,90
2017-08-10T06:13:44.643Z,90
2017-08-10T06:14:25.111Z,95
2017-08-10T06:15:05.468Z,100
2017-08-10T06:15:45.915Z,100
2017-08-10T06:16:26.319Z,105
2017-08-10T06:17:06.708Z,105
2017-08-10T06:17:47.133Z,105
2017-08-10T06:18:27.527Z,105
2017-08-10T06:19:08.012Z,105
2017-08-10T06:19:48.401Z,105
2017-08-10T06:20:28.851Z,105
2017-08-10T06:21:09.222Z,100
2017-08-10T06:21:49.656Z,100
2017-08-10T06:22:30.083Z,100
2017-08-10T06:23:10.670Z,95
2017-08-10T06:23:51.038Z,100
2017-08-10T06:24:31.421Z,95
2017-08-10T06:25:11.894Z,95
2017-08-10T06:25:52.270Z,100
2017-08-10T06:26:32.685Z,100
2017-08-10T06:27:13.164Z,100
2017-08-10T06:27:53.650Z,105
2017-08-10T06:28:34.116Z,110
2017-08-10T06:29:14.658Z,115
2017-08-10T06:29:56.060Z,115
2017-08-10T06:30:35.746Z,120
2017-08-10T06:31:16.202Z,125
2017-08-10T06:31:56.658Z,125
2017-08-10T06:32:36.989Z,125
2017-08-10T06:33:17.453Z,125
2017-08-10T06:33:57.843Z,125
2017-08-10T06:34:38.319Z,125
2017-08-10T06:35:18.781Z,125
2017-08-10T06:35:59.445Z,125
2017-08-10T06:36:39.802Z,120
2017-08-10T06:37:20.152Z,120
2017-08-10T06:38:00.610Z,120
2017-08-10T06:38:40.979Z,125
2017-08-10T06:39:21.465Z,125
2017-08-10T06:40:01.930Z,130
2017-08-10T06:40:42.284Z,130
2017-08-10T06:41:22.662Z,130
2017-08-10T06:42:03.186Z,135
2017-08-10T06:42:43.615Z,135
2017-08-10T06:43:24.066Z,140
2017-08-10T06:44:04.472Z,140
2017-08-10T06:44:44.983Z,140
2017-08-10T06:45:25.369Z,145
2017-08-10T06:46:05.872Z,145
2017-08-10T06:46:46.334Z,145
2017-08-10T06:47:26.750Z,140
2017-08-10T06:48:07.153Z,140
2017-08-10T06:48:47.655Z,145
2017-08-10T06:49:28.143Z,145
2017-08-10T06:50:08.577Z,145
2017-08-10T06:50:50.554Z,145
2017-08-10T06:51:30.979Z,145
2017-08-10T06:52:11.334Z,155
2017-08-10T06:52:56.604Z,165
2017-08-10T06:53:37.042Z,170
2017-08-10T06:54:17.466Z,170
2017-08-10T06:54:57.832Z,170
2017-08-10T06:55:38.264Z,170
2017-08-10T06:56:18.732Z,170
2017-08-10T06:56:59.196Z,170
2017-08-10T06:57:39.717Z,165
2017-08-10T06:58:20.009Z,160
2017-08-10T06:59:00.458Z,160
2017-08-10T06:59:40.828Z,160
2017-08-10T07:00:21.331Z,155
2017-08-10T07:01:02.999Z,155
2017-08-10T07:01:43.448Z,155
2017-08-10T07:10:24.956Z,115
2017-08-10T07:11:06.753Z,120
2017-08-10T07:11:47.260Z,120
2017-08-10T07:12:27.584Z,120
2017-08-10T07:13:08.177Z,120
2017-08-10T07:13:48.659Z,125
2017-08-10T07:14:29.374Z,120
2017-08-10T07:15:09.466Z,130
2017-08-10T07:15:50.511Z,135
2017-08-10T07:16:30.859Z,135
2017-08-10T07:17:11.192Z,135
2017-08-10T07:17:51.699Z,135
2017-08-10T07:18:32.034Z,135
2017-08-10T07:19:12.549Z,130
2017-08-10T07:19:53.346Z,130
2017-08-10T07:20:33.504Z,125
2017-08-10T07:21:14.126Z,115
2017-08-10T07:21:54.603Z,115
2017-08-10T07:22:34.918Z,110
2017-08-10T07:23:15.447Z,105
2017-08-10T07:23:55.814Z,105
2017-08-10T07:24:36.265Z,100
2017-08-10T07:25:16.766Z,100
2017-08-10T07:25:57.149Z,105
2017-08-10T07:26:38.569Z,105
2017-08-10T07:27:18.288Z,105
2017-08-10T07:27:58.836Z,105
2017-08-10T07:28:39.614Z,100
2017-08-10T07:29:20.249Z,105
2017-08-10T07:30:00.841Z,105
2017-08-10T07:30:41.335Z,105
2017-08-10T07:31:22.264Z,105
2017-08-10T07:32:02.762Z,105
2017-08-10T07:32:43.217Z,100
2017-08-10T07:33:23.810Z,105
2017-08-10T07:34:04.408Z,100
2017-08-10T07:34:45.136Z,100
2017-08-10T07:35:25.929Z,105
2017-08-10T07:36:06.512Z,110
2017-08-10T07:36:47.170Z,110
2017-08-10T07:37:27.510Z,115
2017-08-10T07:38:08.113Z,115
2017-08-10T07:38:48.490Z,110
2017-08-10T07:39:28.873Z,110
2017-08-10T07:40:09.406Z,110
2017-08-10T07:40:50.025Z,115
2017-08-10T07:41:33.191Z,115
2017-08-10T07:42:13.516Z,125
2017-08-10T07:42:54.417Z,150
2017-08-10T07:43:34.662Z,165
2017-08-10T07:44:15.252Z,180
2017-08-10T07:44:55.635Z,170
2017-08-10T07:45:36.355Z,170
2017-08-10T07:46:16.953Z,170
2017-08-10T07:46:57.442Z,175
2017-08-10T07:47:37.954Z,175
2017-08-10T07:48:18.382Z,175
2017-08-10T07:48:58.716Z,190
2017-08-10T07:49:39.142Z,195
2017-08-10T07:50:19.672Z,190
2017-08-10T07:51:00.124Z,175
2017-08-10T07:51:40.438Z,170
2017-08-10T07:52:20.959Z,165
2017-08-10T07:53:01.511Z,160
2017-08-10T07:53:41.980Z,160
2017-08-10T07:54:22.427Z,155
2017-08-10T07:55:02.924Z,155
2017-08-10T07:55:43.376Z,160
2017-08-10T07:56:24.623Z,160
2017-08-10T07:57:04.877Z,160
2017-08-10T07:57:45.383Z,150
2017-08-10T07:58:25.998Z,135
2017-08-10T07:59:06.747Z,120
2017-08-10T07:59:47.313Z,115
2017-08-10T08:00:27.771Z,115
2017-08-10T08:01:08.195Z,105
2017-08-10T08:01:48.571Z,105
2017-08-10T08:02:29.080Z,100
2017-08-10T08:03:09.665Z,95
2017-08-10T08:03:50.157Z,85
2017-08-10T08:04:30.761Z,85
2017-08-10T08:05:11.295Z,85
2017-08-10T08:05:51.962Z,85
2017-08-10T08:06:32.653Z,85
2017-08-10T08:07:12.952Z,85
2017-08-10T08:07:53.388Z,90
2017-08-10T08:08:33.869Z,95
2017-08-10T08:09:14.414Z,100
2017-08-10T08:09:54.647Z,105
2017-08-10T08:10:35.209Z,115
2017-08-10T08:11:15.936Z,120
2017-08-10T08:11:56.287Z,125
2017-08-10T08:12:36.756Z,120
2017-08-10T08:13:17.467Z,120
2017-08-10T08:13:58.061Z,125
2017-08-10T08:14:38.269Z,135
2017-08-10T08:15:18.839Z,140
2017-08-10T08:15:59.299Z,140
2017-08-10T08:16:39.873Z,130
2017-08-10T08:17:20.300Z,120
2017-08-10T08:18:00.976Z,105
2017-08-10T08:18:41.684Z,95
2017-08-10T08:19:22.179Z,95
2017-08-10T08:20:02.578Z,95
2017-08-10T08:20:43.241Z,95
2017-08-10T08:21:24.197Z,100
2017-08-10T08:22:04.641Z,100
2017-08-10T08:22:45.093Z,100
2017-08-10T08:23:26.664Z,100
2017-08-10T08:24:07.092Z,100
2017-08-10T08:24:47.861Z,105
2017-08-10T08:25:28.745Z,105
2017-08-10T08:26:08.937Z,110
2017-08-10T08:26:49.642Z,120
2017-08-10T08:27:29.926Z,135
2017-08-10T08:28:10.506Z,140
2017-08-10T08:28:51.061Z,135
2017-08-10T08:29:31.509Z,135
2017-08-10T08:30:12.173Z,135
2017-08-10T08:30:52.795Z,145
2017-08-10T08:31:33.005Z,155
2017-08-10T08:32:13.702Z,195
2017-08-10T08:32:54.205Z,250
2017-08-10T08:33:34.662Z,310
2017-08-10T08:34:15.302Z,325
2017-08-10T08:34:56.609Z,325
2017-08-10T08:35:36.916Z,325
2017-08-10T08:36:17.477Z,330
2017-08-10T08:36:57.789Z,340
2017-08-10T08:37:38.224Z,345
2017-08-10T08:38:18.712Z,335
2017-08-10T08:38:59.294Z,335
2017-08-10T08:39:39.704Z,325
2017-08-10T08:40:20.122Z,325
2017-08-10T08:41:00.493Z,335
2017-08-10T08:41:40.923Z,340
2017-08-10T08:42:21.428Z,350
2017-08-10T08:43:01.855Z,360
2017-08-10T08:43:42.288Z,370
2017-08-10T08:44:22.750Z,375
2017-08-10T08:45:03.201Z,370
2017-08-10T08:45:43.634Z,355
2017-08-10T08:46:23.970Z,345
2017-08-10T08:47:04.401Z,335
2017-08-10T08:47:44.822Z,320
2017-08-10T08:48:25.337Z,310
2017-08-10T08:49:05.814Z,295
2017-08-10T08:49:46.236Z,280
2017-08-10T08:50:26.641Z,265
2017-08-10T08:51:07.096Z,265
2017-08-10T08:51:47.521Z,255
2017-08-10T08:52:28.330Z,250
2017-08-10T08:53:08.612Z,240
2017-08-10T08:53:49.081Z,240
2017-08-10T08:54:29.876Z,240
2017-08-10T08:55:10.258Z,240
2017-08-10T08:55:50.670Z,235
2017-08-10T08:56:31.158Z,220
2017-08-10T08:57:11.611Z,215
2017-08-10T08:57:52.211Z,225
2017-08-10T08:58:32.542Z,235
2017-08-10T08:59:13.019Z,250
2017-08-10T08:59:53.481Z,250
2017-08-10T09:00:34.011Z,250
2017-08-10T09:01:14.492Z,240
2017-08-10T09:03:45.779Z,225
2017-08-10T09:04:28.227Z,245
2017-08-10T09:05:08.626Z,255
2017-08-10T09:05:49.116Z,255
2017-08-10T09:06:29.477Z,255
2017-08-10T09:07:09.978Z,250
2017-08-10T09:07:50.392Z,255
2017-08-10T09:08:30.849Z,255
2017-08-10T09:09:12.165Z,250
2017-08-10T09:09:52.945Z,240
2017-08-10T09:10:33.897Z,240
2017-08-10T09:11:14.972Z,240
2017-08-10T09:11:55.987Z,245
2017-08-10T09:12:37.095Z,245
2017-08-10T09:13:17.926Z,245
2017-08-10T09:13:59.323Z,240
2017-08-10T09:14:39.937Z,225
2017-08-10T09:15:20.446Z,215
2017-08-10T09:16:00.842Z,210
2017-08-10T09:16:41.211Z,210
2017-08-10T09:17:21.726Z,215
2017-08-10T09:18:02.073Z,215
2017-08-10T09:18:42.355Z,210
2017-08-10T09:19:22.982Z,195
2017-08-10T09:20:03.331Z,185
2017-08-10T09:20:44.379Z,180
2017-08-10T09:21:25.019Z,185
2017-08-10T09:22:05.400Z,190
2017-08-10T09:22:45.839Z,190
2017-08-10T09:23:26.275Z,185
2017-08-10T09:24:06.621Z,175
2017-08-10T09:24:47.038Z,170
2017-08-10T09:25:27.425Z,180
2017-08-10T09:26:07.958Z,185
2017-08-10T09:26:48.313Z,190
2017-08-10T09:27:28.768Z,200
2017-08-10T09:28:09.173Z,205
2017-08-10T09:28:49.518Z,215
2017-08-10T09:29:29.940Z,215
2017-08-10T09:30:10.311Z,225
2017-08-10T09:30:50.706Z,230
2017-08-10T09:31:31.224Z,230
2017-08-10T09:32:11.830Z,230
2017-08-10T09:32:52.102Z,235
2017-08-10T09:33:32.484Z,245
2017-08-10T09:34:12.866Z,260
2017-08-10T09:34:53.299Z,270
2017-08-10T09:35:33.880Z,280
2017-08-10T09:38:09.016Z,290
2017-08-10T09:38:49.570Z,280
2017-08-10T09:39:29.942Z,275
2017-08-10T09:40:10.392Z,270
2017-08-10T09:40:50.825Z,270
2017-08-10T09:41:31.233Z,265
2017-08-10T09:42:11.640Z,265
2017-08-10T09:42:52.132Z,260
2017-08-10T09:43:32.523Z,260
2017-08-10T09:44:13.148Z,250
2017-08-10T09:44:54.167Z,240
2017-08-10T09:45:34.077Z,235
2017-08-10T09:47:54.977Z,250
2017-08-10T09:48:35.702Z,255
2017-08-10T09:49:16.702Z,250
2017-08-10T09:49:57.381Z,250
2017-08-10T09:50:39.432Z,235
2017-08-10T09:51:19.561Z,220
2017-08-10T09:52:00.204Z,205
2017-08-10T09:52:40.903Z,200
2017-08-10T09:53:21.676Z,210
2017-08-10T09:54:01.958Z,215
2017-08-10T09:54:42.575Z,230
2017-08-10T09:55:23.068Z,240
2017-08-10T09:56:03.552Z,250
2017-08-10T09:56:44.032Z,245
2017-08-10T09:57:24.730Z,240
2017-08-10T09:58:05.572Z,240
2017-08-10T10:00:55.658Z,275
2017-08-10T10:01:36.338Z,280
2017-08-10T10:02:16.762Z,290
2017-08-10T10:02:57.561Z,300
2017-08-10T10:03:37.783Z,310
2017-08-10T10:04:18.341Z,315
2017-08-10T10:04:58.894Z,315
2017-08-10T10:05:39.324Z,320
2017-08-10T10:06:19.781Z,315